createdAt,value
2023-04-27T00:00:07.035Z,6.40
2023-04-27T00:02:37.754Z,6.40
2023-04-27T00:05:07.232Z,6.40
2023-04-27T00:07:35.964Z,6.40
2023-04-27T00:10:04.525Z,6.40
2023-04-27T00:12:32.950Z,6.40
2023-04-27T00:15:01.424Z,6.40
2023-04-27T00:17:30.115Z,6.40
2023-04-27T00:20:00.879Z,6.40
2023-04-27T00:22:29.412Z,6.40
2023-04-27T00:24:57.865Z,6.30
2023-04-27T00:27:26.747Z,6.30
2023-04-27T00:29:55.275Z,6.30
2023-04-27T00:32:24.062Z,6.30
2023-04-27T00:34:52.647Z,6.30
2023-04-27T00:37:22.471Z,6.30
2023-04-27T00:39:50.958Z,6.30
2023-04-27T00:42:20.121Z,6.30
2023-04-27T00:44:48.760Z,6.20
2023-04-27T00:47:18.286Z,6.20
2023-04-27T00:49:46.946Z,6.20
2023-04-27T00:52:15.837Z,6.20
2023-04-27T00:54:46.079Z,6.20
2023-04-27T00:57:14.769Z,6.20
2023-04-27T00:59:43.163Z,6.20
2023-04-27T01:02:12.491Z,6.20
2023-04-27T01:04:42.067Z,5.50
2023-04-27T01:07:10.454Z,6.20
2023-04-27T01:09:38.916Z,6.20
2023-04-27T01:12:09.465Z,6.20
2023-04-27T01:14:38.219Z,6.20
2023-04-27T01:17:07.211Z,6.20
2023-04-27T01:19:36.285Z,6.20
2023-04-27T01:22:05.007Z,6.20
2023-04-27T01:24:34.913Z,6.20
2023-04-27T01:27:04.341Z,6.10
2023-04-27T01:29:32.922Z,6.10
2023-04-27T01:32:01.425Z,6.10
2023-04-27T01:34:29.944Z,6.10
2023-04-27T01:36:58.665Z,6.10
2023-04-27T01:39:27.444Z,6.10
2023-04-27T01:41:58.582Z,6.10
2023-04-27T01:44:27.302Z,6.00
2023-04-27T01:46:55.725Z,6.00
2023-04-27T01:49:24.452Z,6.80
2023-04-27T01:51:52.980Z,6.00
2023-04-27T01:54:21.527Z,6.00
2023-04-27T01:56:50.196Z,6.00
2023-04-27T01:59:20.151Z,6.00
2023-04-27T02:01:48.643Z,6.00
2023-04-27T02:04:17.696Z,5.90
2023-04-27T02:06:46.836Z,5.90
2023-04-27T02:09:15.866Z,5.90
2023-04-27T02:11:44.586Z,5.90
2023-04-27T02:14:12.955Z,5.90
2023-04-27T02:16:43.246Z,5.90
2023-04-27T02:19:12.060Z,5.90
2023-04-27T02:21:41.909Z,5.10
2023-04-27T02:24:11.815Z,5.90
2023-04-27T02:26:40.399Z,5.90
2023-04-27T02:29:09.331Z,5.80
2023-04-27T02:31:38.117Z,5.80
2023-04-27T02:34:08.153Z,5.80
2023-04-27T02:36:37.654Z,5.80
2023-04-27T02:39:06.211Z,5.80
2023-04-27T02:41:34.660Z,5.80
2023-04-27T02:44:03.116Z,5.80
2023-04-27T02:46:31.556Z,5.70
2023-04-27T02:49:00.210Z,5.80
2023-04-27T02:51:30.269Z,5.70
2023-04-27T02:53:58.685Z,5.70
2023-04-27T02:56:27.292Z,5.70
2023-04-27T02:58:56.553Z,5.70
2023-04-27T03:01:25.336Z,5.70
2023-04-27T03:03:54.053Z,5.70
2023-04-27T03:06:22.764Z,5.70
2023-04-27T03:08:52.853Z,5.70
2023-04-27T03:11:21.785Z,5.70
2023-04-27T03:13:51.103Z,5.60
2023-04-27T03:16:19.726Z,5.60
2023-04-27T03:18:48.458Z,5.60
2023-04-27T03:21:18.102Z,5.60
2023-04-27T03:23:46.860Z,5.60
2023-04-27T03:26:17.198Z,5.60
2023-04-27T03:28:45.956Z,5.60
2023-04-27T03:31:15.968Z,5.60
2023-04-27T03:33:44.592Z,5.60
2023-04-27T03:36:13.377Z,5.60
2023-04-27T03:38:41.934Z,5.60
2023-04-27T03:41:10.567Z,5.60
2023-04-27T03:43:40.608Z,5.60
2023-04-27T03:46:09.977Z,5.60
2023-04-27T03:48:38.565Z,5.60
2023-04-27T03:51:08.413Z,5.60
2023-04-27T03:53:36.913Z,5.50
2023-04-27T03:56:06.331Z,5.60
2023-04-27T03:58:35.098Z,5.50
2023-04-27T04:01:05.435Z,5.50
2023-04-27T04:03:34.397Z,5.50
2023-04-27T04:06:03.965Z,5.50
2023-04-27T04:08:34.392Z,5.50
2023-04-27T04:11:03.356Z,5.50
2023-04-27T04:13:32.112Z,5.60
2023-04-27T04:16:07.094Z,5.60
2023-04-27T04:18:36.409Z,5.60
2023-04-27T04:21:05.521Z,5.60
2023-04-27T04:23:34.320Z,5.60
2023-04-27T04:26:03.875Z,5.60
2023-04-27T04:28:32.722Z,5.60
2023-04-27T04:31:05.988Z,5.60
2023-04-27T04:33:34.864Z,5.60
2023-04-27T04:36:05.493Z,5.60
2023-04-27T04:38:34.494Z,5.70
2023-04-27T04:41:03.371Z,5.70
2023-04-27T04:43:32.131Z,5.70
2023-04-27T04:46:01.120Z,5.80
2023-04-27T04:48:31.192Z,5.80
2023-04-27T04:50:59.954Z,5.80
2023-04-27T04:53:28.735Z,5.90
2023-04-27T04:55:57.561Z,5.90
2023-04-27T04:58:26.454Z,5.90
2023-04-27T05:00:55.364Z,5.90
2023-04-27T05:03:24.316Z,6.00
2023-04-27T05:05:54.804Z,6.10
2023-04-27T05:08:23.757Z,6.10
2023-04-27T05:10:52.555Z,6.20
2023-04-27T05:13:21.321Z,6.20
2023-04-27T05:15:50.313Z,6.30
2023-04-27T05:18:19.152Z,6.30
2023-04-27T05:20:48.318Z,6.40
2023-04-27T05:23:18.634Z,6.40
2023-04-27T05:25:47.468Z,6.60
2023-04-27T05:28:16.719Z,6.70
2023-04-27T05:30:45.540Z,6.80
2023-04-27T05:33:14.260Z,6.90
2023-04-27T05:35:43.101Z,7.00
2023-04-27T05:38:11.870Z,7.20
2023-04-27T05:40:42.170Z,7.40
2023-04-27T05:43:11.117Z,7.60
2023-04-27T05:45:42.223Z,7.90
2023-04-27T05:48:11.083Z,8.10
2023-04-27T05:50:39.870Z,8.20
2023-04-27T05:53:08.798Z,8.50
2023-04-27T05:55:37.990Z,8.90
2023-04-27T05:58:09.385Z,9.50
2023-04-27T06:00:38.658Z,9.90
2023-04-27T06:03:07.693Z,10.40
2023-04-27T06:05:37.263Z,10.70
2023-04-27T06:08:06.420Z,10.90
2023-04-27T06:10:35.720Z,11.20
2023-04-27T06:13:05.060Z,11.20
2023-04-27T06:15:35.281Z,11.50
2023-04-27T06:18:04.157Z,12.00
2023-04-27T06:20:33.526Z,13.20
2023-04-27T06:23:03.104Z,14.70
2023-04-27T06:25:32.079Z,15.00
2023-04-27T06:28:00.880Z,15.10
2023-04-27T06:30:29.661Z,14.80
2023-04-27T06:33:00.598Z,14.50
2023-04-27T06:35:29.558Z,14.60
2023-04-27T06:37:59.197Z,15.30
2023-04-27T06:40:28.126Z,16.30
2023-04-27T06:42:57.331Z,17.40
2023-04-27T06:45:26.814Z,18.40
2023-04-27T06:47:55.767Z,19.10
2023-04-27T06:50:25.997Z,18.60
2023-04-27T06:52:54.748Z,17.80
2023-04-27T06:55:24.165Z,17.50
2023-04-27T06:57:52.788Z,17.60
2023-04-27T07:00:22.167Z,18.30
2023-04-27T07:02:51.617Z,18.50
2023-04-27T07:05:20.661Z,18.90
2023-04-27T07:07:51.126Z,19.60
2023-04-27T07:10:20.140Z,19.20
2023-04-27T07:12:48.530Z,19.30
2023-04-27T07:15:16.963Z,18.50
2023-04-27T07:17:45.800Z,19.10
2023-04-27T07:20:14.532Z,18.60
2023-04-27T07:22:43.039Z,18.10
2023-04-27T07:25:13.561Z,16.90
2023-04-27T07:27:41.983Z,16.50
2023-04-27T07:30:13.392Z,16.40
2023-04-27T07:32:42.742Z,17.30
2023-04-27T07:35:12.183Z,17.60
2023-04-27T07:37:40.712Z,18.10
2023-04-27T07:40:16.546Z,18.40
2023-04-27T07:42:47.394Z,18.00
2023-04-27T07:45:17.647Z,16.60
2023-04-27T07:47:46.459Z,15.90
2023-04-27T07:50:16.455Z,16.20
2023-04-27T07:52:44.958Z,17.40
2023-04-27T07:55:13.399Z,18.00
2023-04-27T07:57:41.883Z,18.00
2023-04-27T08:00:13.589Z,16.70
2023-04-27T08:02:43.837Z,16.20
2023-04-27T08:05:12.737Z,16.30
2023-04-27T08:07:44.564Z,17.50
2023-04-27T08:10:13.923Z,18.30
2023-04-27T08:12:42.572Z,18.50
2023-04-27T08:15:13.328Z,17.80
2023-04-27T08:17:42.189Z,16.80
2023-04-27T08:20:12.689Z,16.10
2023-04-27T08:22:41.521Z,15.80
2023-04-27T08:25:10.782Z,14.60
2023-04-27T08:27:40.124Z,13.80
2023-04-27T08:30:09.759Z,13.20
2023-04-27T08:32:40.050Z,12.40
2023-04-27T08:35:08.854Z,11.90
2023-04-27T08:37:37.402Z,11.40
2023-04-27T08:40:08.337Z,11.30
2023-04-27T08:42:37.083Z,11.20
2023-04-27T08:45:09.283Z,11.00
2023-04-27T08:47:43.839Z,10.60
2023-04-27T08:50:13.211Z,10.20
2023-04-27T08:52:41.726Z,10.10
2023-04-27T08:55:10.524Z,10.30
2023-04-27T08:57:39.030Z,10.50
2023-04-27T09:00:12.963Z,10.50
2023-04-27T09:02:48.490Z,10.50
2023-04-27T09:05:18.554Z,10.40
2023-04-27T09:07:58.731Z,10.80
2023-04-27T09:10:29.343Z,11.20
2023-04-27T09:13:00.227Z,11.30
2023-04-27T09:15:30.082Z,11.40
2023-04-27T09:17:59.867Z,11.40
2023-04-27T09:20:28.813Z,11.00
2023-04-27T09:22:58.685Z,10.90
2023-04-27T09:25:29.355Z,10.80
2023-04-27T09:27:58.511Z,10.60
2023-04-27T09:30:27.191Z,10.30
2023-04-27T09:32:57.128Z,10.20
2023-04-27T09:35:29.320Z,10.00
2023-04-27T09:37:58.101Z,10.00
2023-04-27T09:40:29.894Z,10.20
2023-04-27T09:43:01.174Z,10.30
2023-04-27T09:45:29.698Z,10.60
2023-04-27T09:47:59.296Z,10.90
2023-04-27T09:50:29.111Z,11.10
2023-04-27T09:52:57.510Z,11.30
2023-04-27T09:55:29.747Z,11.40
2023-04-27T09:58:15.470Z,11.40
2023-04-27T10:00:54.511Z,11.60
2023-04-27T10:03:29.210Z,11.70
2023-04-27T10:06:52.113Z,11.50
2023-04-27T10:09:23.724Z,11.40
2023-04-27T10:11:53.366Z,11.30
2023-04-27T10:14:23.142Z,11.40
2023-04-27T10:16:53.549Z,11.40
2023-04-27T10:19:22.590Z,11.60
2023-04-27T10:21:57.941Z,11.90
2023-04-27T10:24:39.355Z,12.00
2023-04-27T10:27:09.338Z,12.40
2023-04-27T10:29:39.943Z,12.50
2023-04-27T10:32:09.493Z,12.70
2023-04-27T10:34:38.748Z,13.00
2023-04-27T10:37:09.911Z,13.10
2023-04-27T10:39:48.423Z,13.30
2023-04-27T10:42:29.411Z,13.50
2023-04-27T10:44:59.224Z,13.40
2023-04-27T10:47:38.466Z,12.60
2023-04-27T10:50:09.135Z,12.40
2023-04-27T10:52:42.802Z,12.00
2023-04-27T10:55:18.931Z,11.60
2023-04-27T10:57:51.930Z,11.50
2023-04-27T11:00:27.102Z,11.50
2023-04-27T11:02:56.680Z,11.40
2023-04-27T11:05:29.928Z,11.30
2023-04-27T11:08:08.462Z,11.10
2023-04-27T11:10:39.660Z,11.30
2023-04-27T11:13:10.474Z,11.50
2023-04-27T11:15:46.773Z,11.50
2023-04-27T11:18:15.844Z,11.60
2023-04-27T11:20:45.700Z,11.80
2023-04-27T11:23:26.531Z,12.20
2023-04-27T11:25:55.402Z,12.50
2023-04-27T11:28:24.384Z,12.90
2023-04-27T11:30:59.090Z,12.80
2023-04-27T11:33:27.930Z,13.00
2023-04-27T11:35:56.608Z,13.40
2023-04-27T11:38:27.687Z,13.70
2023-04-27T11:41:03.905Z,13.90
2023-04-27T11:43:32.475Z,13.90
2023-04-27T11:46:04.398Z,13.90
2023-04-27T11:48:32.939Z,13.90
2023-04-27T11:51:01.616Z,13.70
2023-04-27T11:53:36.409Z,13.60
2023-04-27T11:56:06.311Z,12.70
2023-04-27T11:58:36.254Z,13.40
2023-04-27T12:01:05.000Z,12.90
2023-04-27T12:03:34.039Z,12.30
2023-04-27T12:06:21.592Z,12.20
2023-04-27T12:08:53.186Z,12.00
2023-04-27T12:11:22.059Z,12.10
2023-04-27T12:13:50.415Z,12.30
2023-04-27T12:16:18.758Z,12.60
2023-04-27T12:18:47.188Z,12.60
2023-04-27T12:21:15.779Z,12.70
2023-04-27T12:23:44.611Z,12.80
2023-04-27T12:26:15.307Z,12.70
2023-04-27T12:28:43.802Z,12.70
2023-04-27T12:31:16.618Z,12.70
2023-04-27T12:33:44.969Z,12.60
2023-04-27T12:36:13.320Z,12.50
2023-04-27T12:38:41.744Z,12.70
2023-04-27T12:41:10.210Z,12.80
2023-04-27T12:43:41.294Z,12.80
2023-04-27T12:46:10.088Z,13.00
2023-04-27T12:48:38.357Z,13.00
2023-04-27T12:51:08.153Z,13.00
2023-04-27T12:53:36.757Z,12.90
2023-04-27T12:56:05.707Z,13.00
2023-04-27T12:58:34.108Z,13.10
2023-04-27T13:01:03.962Z,13.10
2023-04-27T13:03:32.879Z,13.20
2023-04-27T13:06:02.049Z,13.00
2023-04-27T13:08:30.822Z,12.90
2023-04-27T13:10:59.170Z,12.60
2023-04-27T13:13:27.594Z,12.60
2023-04-27T13:15:56.565Z,12.80
2023-04-27T13:18:26.548Z,13.00
2023-04-27T13:20:54.954Z,13.10
2023-04-27T13:23:23.334Z,13.20
2023-04-27T13:25:52.572Z,12.90
2023-04-27T13:28:21.289Z,13.10
2023-04-27T13:30:50.062Z,13.20
2023-04-27T13:33:23.082Z,13.20
2023-04-27T13:35:53.986Z,13.30
2023-04-27T13:38:22.811Z,13.40
2023-04-27T13:40:51.500Z,13.40
2023-04-27T13:43:20.460Z,13.30
2023-04-27T13:45:52.711Z,13.10
2023-04-27T13:48:21.949Z,13.10
2023-04-27T13:50:51.250Z,13.00
2023-04-27T13:53:21.328Z,12.90
2023-04-27T13:55:50.605Z,13.00
2023-04-27T13:58:19.617Z,13.00
2023-04-27T14:00:49.528Z,12.80
2023-04-27T14:03:18.520Z,13.00
2023-04-27T14:05:49.068Z,12.80
2023-04-27T14:08:17.949Z,12.40
2023-04-27T14:10:50.778Z,12.40
2023-04-27T14:13:20.649Z,12.40
2023-04-27T14:15:49.336Z,12.50
2023-04-27T14:18:18.057Z,12.70
2023-04-27T14:20:46.883Z,12.60
2023-04-27T14:23:15.627Z,12.70
2023-04-27T14:25:44.153Z,12.50
2023-04-27T14:28:14.980Z,12.50
2023-04-27T14:30:43.644Z,12.50
2023-04-27T14:33:12.273Z,12.70
2023-04-27T14:35:40.982Z,12.60
2023-04-27T14:38:09.518Z,12.70
2023-04-27T14:40:38.148Z,12.50
2023-04-27T14:43:06.804Z,12.50
2023-04-27T14:45:50.293Z,12.50
2023-04-27T14:48:19.481Z,12.50
2023-04-27T14:50:48.147Z,12.50
2023-04-27T14:53:16.678Z,12.40
2023-04-27T14:55:46.034Z,12.40
2023-04-27T14:58:15.654Z,12.40
2023-04-27T15:00:45.983Z,12.30
2023-04-27T15:03:15.203Z,12.20
2023-04-27T15:05:44.374Z,12.40
2023-04-27T15:08:12.839Z,12.60
2023-04-27T15:10:41.240Z,13.00
2023-04-27T15:13:12.172Z,13.20
2023-04-27T15:15:40.617Z,13.50
2023-04-27T15:18:10.500Z,13.40
2023-04-27T15:20:39.118Z,13.60
2023-04-27T15:23:07.517Z,13.50
2023-04-27T15:25:35.799Z,13.40
2023-04-27T15:28:04.292Z,13.30
2023-04-27T15:30:32.626Z,13.10
2023-04-27T15:33:01.095Z,13.00
2023-04-27T15:35:30.956Z,12.90
2023-04-27T15:37:59.560Z,12.60
2023-04-27T15:40:27.807Z,12.30
2023-04-27T15:42:56.209Z,12.40
2023-04-27T15:45:24.794Z,12.30
2023-04-27T15:47:53.194Z,12.30
2023-04-27T15:50:21.756Z,12.20
2023-04-27T15:52:52.329Z,12.20
2023-04-27T15:55:21.115Z,12.10
2023-04-27T15:57:49.511Z,12.00
2023-04-27T16:00:22.191Z,11.90
2023-04-27T16:02:50.968Z,12.50
2023-04-27T16:05:19.411Z,11.80
2023-04-27T16:07:47.866Z,11.90
2023-04-27T16:10:17.683Z,11.90
2023-04-27T16:12:46.117Z,11.90
2023-04-27T16:15:14.585Z,12.00
2023-04-27T16:17:43.046Z,11.80
2023-04-27T16:20:11.560Z,11.80
2023-04-27T16:22:41.323Z,11.70
2023-04-27T16:25:11.396Z,11.70
2023-04-27T16:27:41.416Z,11.70
2023-04-27T16:30:10.921Z,11.50
2023-04-27T16:32:39.588Z,11.40
2023-04-27T16:35:09.151Z,11.40
2023-04-27T16:37:37.852Z,11.30
2023-04-27T16:40:08.442Z,11.20
2023-04-27T16:42:36.885Z,11.00
2023-04-27T16:45:09.897Z,10.80
2023-04-27T16:47:39.249Z,10.70
2023-04-27T16:50:08.243Z,10.60
2023-04-27T16:52:36.823Z,10.50
2023-04-27T16:55:06.124Z,10.50
2023-04-27T16:57:34.504Z,10.50
2023-04-27T17:00:05.072Z,10.60
2023-04-27T17:02:35.366Z,10.60
2023-04-27T17:05:04.182Z,10.60
2023-04-27T17:07:33.119Z,10.70
2023-04-27T17:10:01.645Z,10.70
2023-04-27T17:12:29.992Z,10.80
2023-04-27T17:14:58.386Z,10.70
2023-04-27T17:17:26.950Z,10.60
2023-04-27T17:19:56.981Z,10.60
2023-04-27T17:22:25.317Z,10.60
2023-04-27T17:24:53.657Z,10.60
2023-04-27T17:27:22.026Z,10.60
2023-04-27T17:29:51.824Z,10.60
2023-04-27T17:32:20.364Z,10.60
2023-04-27T17:34:48.792Z,10.60
2023-04-27T17:37:18.695Z,10.80
2023-04-27T17:39:47.535Z,10.60
2023-04-27T17:42:15.877Z,10.50
2023-04-27T17:44:44.242Z,10.40
2023-04-27T17:47:12.729Z,10.30
2023-04-27T17:49:41.117Z,10.20
2023-04-27T17:52:09.961Z,10.10
2023-04-27T17:54:41.139Z,10.00
2023-04-27T17:57:09.842Z,9.90
2023-04-27T17:59:38.197Z,9.80
2023-04-27T18:02:06.592Z,9.80
2023-04-27T18:04:35.140Z,9.70
2023-04-27T18:07:03.660Z,9.60
2023-04-27T18:09:33.085Z,9.50
2023-04-27T18:12:03.491Z,9.40
2023-04-27T18:14:31.894Z,9.30
2023-04-27T18:17:00.260Z,9.20
2023-04-27T18:19:28.887Z,9.00
2023-04-27T18:21:57.184Z,8.90
2023-04-27T18:24:25.597Z,8.70
2023-04-27T18:26:54.104Z,8.60
2023-04-27T18:29:23.864Z,8.60
2023-04-27T18:31:53.541Z,8.40
2023-04-27T18:34:21.926Z,8.40
2023-04-27T18:36:52.030Z,8.30
2023-04-27T18:39:20.816Z,8.20
2023-04-27T18:41:49.534Z,8.10
2023-04-27T18:44:17.918Z,8.10
2023-04-27T18:46:47.695Z,8.00
2023-04-27T18:49:16.387Z,8.00
2023-04-27T18:51:44.956Z,7.90
2023-04-27T18:54:13.230Z,7.80
2023-04-27T18:56:41.480Z,7.80
2023-04-27T18:59:09.815Z,7.80
2023-04-27T19:01:38.255Z,7.70
2023-04-27T19:04:08.397Z,7.70
2023-04-27T19:06:37.138Z,7.60
2023-04-27T19:09:05.634Z,7.60
2023-04-27T19:11:33.941Z,7.50
2023-04-27T19:14:02.239Z,7.50
2023-04-27T19:16:30.754Z,7.40
2023-04-27T19:18:59.203Z,7.60
2023-04-27T19:21:29.064Z,7.30
2023-04-27T19:23:57.428Z,7.20
2023-04-27T19:26:27.174Z,7.20
2023-04-27T19:28:56.960Z,7.10
2023-04-27T19:31:26.328Z,7.10
2023-04-27T19:33:55.548Z,7.00
2023-04-27T19:36:24.732Z,7.00
2023-04-27T19:38:54.417Z,7.00
2023-04-27T19:41:23.668Z,7.00
2023-04-27T19:43:51.942Z,6.90
2023-04-27T19:46:20.435Z,6.90
2023-04-27T19:48:48.731Z,6.90
2023-04-27T19:51:17.146Z,6.90
2023-04-27T19:53:45.554Z,6.90
2023-04-27T19:56:15.279Z,7.00
2023-04-27T19:58:43.588Z,6.90
2023-04-27T20:01:13.507Z,6.90
2023-04-27T20:03:42.291Z,6.80
2023-04-27T20:06:11.380Z,6.80
2023-04-27T20:08:39.904Z,6.90
2023-04-27T20:11:08.187Z,6.90
2023-04-27T20:13:37.900Z,6.90
2023-04-27T20:16:06.685Z,6.90
2023-04-27T20:18:35.218Z,6.90
2023-04-27T20:21:04.395Z,6.90
2023-04-27T20:23:32.690Z,6.90
2023-04-27T20:26:01.042Z,6.80
2023-04-27T20:28:30.623Z,6.80
2023-04-27T20:31:00.590Z,6.70
2023-04-27T20:33:28.951Z,6.60
2023-04-27T20:36:03.653Z,6.60
2023-04-27T20:38:34.976Z,6.60
2023-04-27T20:41:03.827Z,6.50
2023-04-27T20:43:32.651Z,6.50
2023-04-27T20:46:02.867Z,6.50
2023-04-27T20:48:31.517Z,6.50
2023-04-27T20:50:59.831Z,6.50
2023-04-27T20:53:28.152Z,6.50
2023-04-27T20:55:57.122Z,6.40
2023-04-27T20:58:25.833Z,6.50
2023-04-27T21:00:54.072Z,6.50
2023-04-27T21:03:24.090Z,6.40
2023-04-27T21:05:52.641Z,6.40
2023-04-27T21:08:20.945Z,6.30
2023-04-27T21:10:49.272Z,6.30
2023-04-27T21:13:17.702Z,6.30
2023-04-27T21:15:46.084Z,6.30
2023-04-27T21:18:26.657Z,6.30
2023-04-27T21:21:00.114Z,6.30
2023-04-27T21:23:28.729Z,6.30
2023-04-27T21:25:57.069Z,6.30
2023-04-27T21:28:25.386Z,6.30
2023-04-27T21:30:53.707Z,6.20
2023-04-27T21:33:22.476Z,6.20
2023-04-27T21:35:50.880Z,6.20
2023-04-27T21:38:20.629Z,6.30
2023-04-27T21:40:49.155Z,6.30
2023-04-27T21:43:17.500Z,6.30
2023-04-27T21:45:45.887Z,6.30
2023-04-27T21:48:14.307Z,6.20
2023-04-27T21:50:42.764Z,6.20
2023-04-27T21:53:11.162Z,6.10
2023-04-27T21:55:40.885Z,6.10
2023-04-27T21:58:09.221Z,6.10
2023-04-27T22:00:37.570Z,6.00
2023-04-27T22:03:05.875Z,6.00
2023-04-27T22:05:37.243Z,6.00
2023-04-27T22:08:05.623Z,5.90
2023-04-27T22:10:33.889Z,6.00
2023-04-27T22:13:15.122Z,6.10
2023-04-27T22:15:47.146Z,6.70
2023-04-27T22:18:16.078Z,6.10
2023-04-27T22:20:44.664Z,6.00
2023-04-27T22:23:12.933Z,6.00
2023-04-27T22:25:42.813Z,6.00
2023-04-27T22:28:12.772Z,6.00
2023-04-27T22:30:42.074Z,5.90
2023-04-27T22:33:11.061Z,6.00
2023-04-27T22:35:39.460Z,6.00
2023-04-27T22:38:08.222Z,6.00
2023-04-27T22:40:37.160Z,6.10
2023-04-27T22:43:05.457Z,6.10
2023-04-27T22:45:36.716Z,6.00
2023-04-27T22:48:07.300Z,5.80
2023-04-27T22:50:35.611Z,6.00
2023-04-27T22:53:03.861Z,6.00
2023-04-27T22:55:32.185Z,6.10
2023-04-27T22:58:00.393Z,6.10
2023-04-27T23:00:29.619Z,6.20
2023-04-27T23:02:59.368Z,6.20
2023-04-27T23:05:29.222Z,6.20
2023-04-27T23:07:57.893Z,6.10
2023-04-27T23:10:27.137Z,6.00
2023-04-27T23:12:57.218Z,5.90
2023-04-27T23:15:25.930Z,5.80
2023-04-27T23:17:54.384Z,5.80
2023-04-27T23:20:28.732Z,5.70
2023-04-27T23:22:58.256Z,5.70
2023-04-27T23:25:26.867Z,5.70
2023-04-27T23:27:55.525Z,5.70
2023-04-27T23:30:24.234Z,5.70
2023-04-27T23:32:52.789Z,5.60
2023-04-27T23:35:21.622Z,5.60
2023-04-27T23:37:51.579Z,5.50
2023-04-27T23:40:19.976Z,5.40
2023-04-27T23:42:50.829Z,5.40
2023-04-27T23:45:20.966Z,5.40
2023-04-27T23:47:49.533Z,5.30
2023-04-27T23:50:18.510Z,5.30
2023-04-27T23:52:46.910Z,5.30
2023-04-27T23:55:17.242Z,5.20
2023-04-27T23:57:45.750Z,5.20
